Time;durP1;ratioP1;P1;durP2;ratioP2;P2;SDS_P1;SDS_P2;PMS_P1;PMS_P2;Temp;Humidity;BMP_temperature;BMP_pressure;BME280_temperature;BME280_humidity;BME280_pressure;Samples;Min_cycle;Max_cycle;Signal;HPM_P1;HPM_P2
2022/10/07 00:01:27;;;;;;;6.47;2.75;;;11.50;99.90;;;;;;5027521;28;20534;-73
2022/10/07 00:03:53;;;;;;;3.03;1.67;;;11.50;99.90;;;;;;5027068;28;20076;-74
2022/10/07 00:06:21;;;;;;;7.85;2.67;;;11.50;99.90;;;;;;5026406;28;20041;-74
2022/10/07 00:08:49;;;;;;;11.50;2.72;;;11.50;99.90;;;;;;5026642;28;20037;-74
2022/10/07 00:11:23;;;;;;;6.10;2.20;;;11.50;99.90;;;;;;5026079;28;20053;-72
2022/10/07 00:13:53;;;;;;;5.05;2.40;;;11.50;99.90;;;;;;5026507;28;20132;-73
2022/10/07 00:16:23;;;;;;;4.63;2.78;;;11.50;99.90;;;;;;5025838;28;20447;-74
2022/10/07 00:18:50;;;;;;;6.55;2.00;;;11.40;99.90;;;;;;5024909;28;20053;-73
2022/10/07 00:21:17;;;;;;;5.75;2.33;;;11.50;99.90;;;;;;5025732;28;20780;-73
2022/10/07 00:23:44;;;;;;;4.57;2.45;;;11.50;99.90;;;;;;5026334;28;20041;-74
2022/10/07 00:26:12;;;;;;;3.63;1.70;;;11.50;99.90;;;;;;5025718;28;20447;-73
2022/10/07 00:28:37;;;;;;;13.82;3.30;;;11.40;99.90;;;;;;5024929;28;20038;-74
2022/10/07 00:31:06;;;;;;;8.63;3.08;;;11.40;99.90;;;;;;5025610;28;20470;-73
2022/10/07 00:33:34;;;;;;;7.05;1.75;;;11.40;99.90;;;;;;5026801;28;20042;-76
2022/10/07 00:36:00;;;;;;;4.38;1.48;;;11.40;99.90;;;;;;5026322;28;20034;-73
2022/10/07 00:38:26;;;;;;;5.22;2.88;;;11.40;99.90;;;;;;5026170;28;20385;-74
2022/10/07 00:40:52;;;;;;;6.00;2.17;;;11.40;99.90;;;;;;5026123;28;20045;-75
2022/10/07 00:43:26;;;;;;;5.95;2.83;;;11.40;99.90;;;;;;5026224;28;20411;-74
2022/10/07 00:46:20;;;;;;;6.22;2.97;;;11.40;99.90;;;;;;5025959;28;20116;-72
2022/10/07 00:48:46;;;;;;;5.25;2.83;;;11.40;99.90;;;;;;5022474;28;20049;-73
2022/10/07 00:51:15;;;;;;;10.90;2.60;;;11.40;99.90;;;;;;5024103;28;20510;-73
2022/10/07 00:53:42;;;;;;;5.53;2.17;;;11.40;99.90;;;;;;5026226;28;20049;-73
2022/10/07 00:56:08;;;;;;;5.13;2.35;;;11.40;99.90;;;;;;5024785;28;20041;-73
2022/10/07 00:58:36;;;;;;;8.77;2.75;;;11.40;99.90;;;;;;5025801;28;20484;-74
2022/10/07 01:01:02;;;;;;;4.68;2.05;;;11.40;99.90;;;;;;5024991;28;20049;-75
2022/10/07 01:03:28;;;;;;;5.30;2.38;;;11.40;99.90;;;;;;5025001;28;20045;-74
2022/10/07 01:05:54;;;;;;;4.57;2.72;;;11.40;99.90;;;;;;5025091;28;20439;-74
2022/10/07 01:08:21;;;;;;;18.50;2.63;;;11.40;99.90;;;;;;5026090;28;20060;-74
2022/10/07 01:10:53;;;;;;;4.70;2.33;;;11.40;99.90;;;;;;5024352;28;20628;-73
2022/10/07 01:13:31;;;;;;;11.25;3.25;;;11.40;99.90;;;;;;5025914;28;20129;-73
2022/10/07 01:16:23;;;;;;;3.78;1.60;;;11.40;99.90;;;;;;5008272;28;20067;-73
2022/10/07 01:18:56;;;;;;;5.38;2.58;;;11.40;99.90;;;;;;5024194;28;20461;-74
2022/10/07 01:21:30;;;;;;;6.07;2.22;;;11.30;99.90;;;;;;5025002;28;20045;-72
2022/10/07 01:24:14;;;;;;;7.22;2.47;;;11.40;99.90;;;;;;5024957;28;20476;-74
2022/10/07 01:26:45;;;;;;;3.70;1.83;;;11.30;99.90;;;;;;4987991;28;20049;-72
2022/10/07 01:29:33;;;;;;;4.30;1.90;;;11.30;99.90;;;;;;5013627;28;20045;-73
2022/10/07 01:32:11;;;;;;;5.90;1.83;;;11.30;99.90;;;;;;5025242;28;20057;-72
2022/10/07 01:34:39;;;;;;;5.25;1.98;;;11.30;99.90;;;;;;5025086;28;20565;-73
2022/10/07 01:37:07;;;;;;;9.07;2.63;;;11.30;99.90;;;;;;5023226;28;20069;-73
2022/10/07 01:39:38;;;;;;;2.78;1.77;;;11.30;99.90;;;;;;5024570;28;20411;-72
2022/10/07 01:42:05;;;;;;;3.97;2.15;;;11.30;99.90;;;;;;5005658;28;20492;-74
2022/10/07 01:44:30;;;;;;;3.50;2.13;;;11.30;99.90;;;;;;5004793;28;20049;-74
2022/10/07 01:46:57;;;;;;;7.88;3.63;;;11.20;99.90;;;;;;5006219;28;20056;-74
2022/10/07 01:49:23;;;;;;;4.57;1.98;;;11.20;99.90;;;;;;5024900;28;20455;-73
2022/10/07 01:52:09;;;;;;;5.53;2.78;;;11.20;99.90;;;;;;5023853;28;20072;-74
2022/10/07 01:54:53;;;;;;;7.43;2.47;;;11.20;99.90;;;;;;5005721;28;20046;-73
2022/10/07 01:57:37;;;;;;;4.28;1.83;;;11.20;99.90;;;;;;5024866;28;20587;-73
2022/10/07 02:00:08;;;;;;;14.77;2.70;;;11.20;99.90;;;;;;5023237;28;20104;-73
2022/10/07 02:02:52;;;;;;;4.97;2.25;;;11.20;99.90;;;;;;5024848;28;20053;-73
2022/10/07 02:05:21;;;;;;;4.57;2.25;;;11.20;99.90;;;;;;5023310;28;20540;-73
2022/10/07 02:08:20;;;;;;;6.40;3.15;;;11.20;99.90;;;;;;5022456;28;20087;-73
2022/10/07 02:11:07;;;;;;;6.70;2.42;;;11.20;99.90;;;;;;5024511;28;20549;-72
2022/10/07 02:13:33;;;;;;;6.30;2.47;;;11.20;99.90;;;;;;5023960;28;20034;-73
2022/10/07 02:16:16;;;;;;;4.65;2.58;;;11.10;99.90;;;;;;5025234;28;20067;-74
2022/10/07 02:18:47;;;;;;;10.07;2.42;;;11.10;99.90;;;;;;5022865;28;20045;-73
2022/10/07 02:21:14;;;;;;;5.25;1.98;;;11.20;99.90;;;;;;5022511;28;20518;-73
2022/10/07 02:23:42;;;;;;;7.75;3.33;;;11.20;99.90;;;;;;5024387;28;20053;-73
2022/10/07 02:26:12;;;;;;;3.05;1.70;;;11.10;99.90;;;;;;5024827;28;20041;-73
2022/10/07 02:28:41;;;;;;;4.72;2.30;;;11.10;99.90;;;;;;5024415;28;20069;-73
2022/10/07 02:31:11;;;;;;;5.72;2.95;;;11.10;99.90;;;;;;5024334;28;20049;-73
2022/10/07 02:33:37;;;;;;;5.57;2.40;;;11.10;99.90;;;;;;5022913;28;20048;-74
2022/10/07 02:36:15;;;;;;;8.80;3.47;;;11.10;99.90;;;;;;5022013;28;20045;-73
2022/10/07 02:38:41;;;;;;;7.65;3.60;;;11.10;99.90;;;;;;5022722;28;20041;-73
2022/10/07 02:41:30;;;;;;;13.25;2.38;;;11.10;99.90;;;;;;5023498;28;20057;-72
2022/10/07 02:44:05;;;;;;;5.72;2.65;;;11.10;99.90;;;;;;5022952;28;20042;-73
2022/10/07 02:46:35;;;;;;;11.57;3.17;;;11.10;99.90;;;;;;5023502;28;20045;-74
2022/10/07 02:49:05;;;;;;;4.10;3.25;;;11.10;99.90;;;;;;5024581;28;20252;-73
2022/10/07 02:51:51;;;;;;;4.35;2.15;;;11.10;99.90;;;;;;5022522;28;20492;-74
2022/10/07 02:54:20;;;;;;;4.63;2.65;;;11.10;99.90;;;;;;5006596;28;20053;-73
2022/10/07 02:56:47;;;;;;;15.30;3.97;;;11.10;99.90;;;;;;5022690;28;20046;-75
2022/10/07 02:59:15;;;;;;;5.75;2.78;;;11.20;99.90;;;;;;5023237;28;20049;-74
2022/10/07 03:01:45;;;;;;;11.25;3.55;;;11.20;99.90;;;;;;5023841;28;20555;-74
2022/10/07 03:04:11;;;;;;;7.43;2.63;;;11.20;99.90;;;;;;5023981;28;20049;-72
2022/10/07 03:06:37;;;;;;;7.20;2.95;;;11.20;99.90;;;;;;5021836;28;20052;-72
2022/10/07 03:09:03;;;;;;;5.70;2.75;;;11.20;99.90;;;;;;5023934;28;20046;-73
2022/10/07 03:11:29;;;;;;;14.27;3.22;;;11.10;99.90;;;;;;5024874;28;20091;-72
2022/10/07 03:13:55;;;;;;;5.75;2.58;;;11.20;99.90;;;;;;5023916;28;20128;-74
2022/10/07 03:16:20;;;;;;;6.10;2.83;;;11.20;99.90;;;;;;5024178;28;20511;-72
2022/10/07 03:18:46;;;;;;;6.28;3.03;;;11.20;99.90;;;;;;5023485;28;20052;-73
2022/10/07 03:21:11;;;;;;;4.00;2.60;;;11.20;99.90;;;;;;5023291;28;20117;-74
2022/10/07 03:23:37;;;;;;;9.98;3.78;;;11.20;99.90;;;;;;5022798;28;20076;-73
2022/10/07 03:26:03;;;;;;;4.28;3.60;;;11.20;99.90;;;;;;5023704;28;20140;-74
2022/10/07 03:28:32;;;;;;;7.93;3.08;;;11.20;99.90;;;;;;5028235;28;20048;-73
2022/10/07 03:31:06;;;;;;;5.22;2.88;;;11.20;99.90;;;;;;5026734;28;20484;-73
2022/10/07 03:33:32;;;;;;;15.48;3.67;;;11.20;99.90;;;;;;5027524;28;20359;-75
2022/10/07 03:35:57;;;;;;;8.45;4.43;;;11.20;99.90;;;;;;5026833;28;20117;-73
2022/10/07 03:38:23;;;;;;;8.43;2.78;;;11.20;99.90;;;;;;5026127;28;20384;-74
2022/10/07 03:40:48;;;;;;;12.52;3.72;;;11.20;99.90;;;;;;5027331;28;20041;-73
2022/10/07 03:43:14;;;;;;;11.52;3.20;;;11.20;99.90;;;;;;5026189;28;20033;-73
2022/10/07 03:45:44;;;;;;;8.63;3.75;;;11.10;99.90;;;;;;5009506;28;20045;-73
2022/10/07 03:48:09;;;;;;;15.52;2.72;;;11.20;99.90;;;;;;5026346;28;20567;-74
2022/10/07 03:50:36;;;;;;;8.70;4.80;;;11.20;99.90;;;;;;5025962;28;20127;-73
2022/10/07 03:53:03;;;;;;;4.40;2.40;;;11.20;99.90;;;;;;5027584;28;20056;-73
2022/10/07 03:55:29;;;;;;;8.93;3.20;;;11.20;99.90;;;;;;5026451;28;20049;-74
2022/10/07 03:57:56;;;;;;;6.93;3.85;;;11.20;99.90;;;;;;4989928;28;20060;-72
2022/10/07 04:00:24;;;;;;;15.02;4.57;;;11.20;99.90;;;;;;5024531;28;20053;-73
2022/10/07 04:02:50;;;;;;;23.48;4.57;;;11.20;99.90;;;;;;5026744;28;20041;-72
2022/10/07 04:05:18;;;;;;;6.50;2.72;;;11.10;99.90;;;;;;5026046;28;20049;-74
2022/10/07 04:07:45;;;;;;;4.55;2.92;;;11.20;99.90;;;;;;5026620;28;20488;-74
2022/10/07 04:10:13;;;;;;;7.45;2.70;;;11.20;99.90;;;;;;5009366;28;20049;-73
2022/10/07 04:12:39;;;;;;;5.65;3.40;;;11.10;99.90;;;;;;5025569;28;20527;-73
2022/10/07 04:15:05;;;;;;;24.45;3.25;;;11.10;99.90;;;;;;5025507;28;20080;-72
2022/10/07 04:17:30;;;;;;;7.22;3.22;;;11.10;99.90;;;;;;5027257;28;20033;-73
2022/10/07 04:19:56;;;;;;;6.05;3.03;;;11.00;99.90;;;;;;5026589;28;20100;-73
2022/10/07 04:22:23;;;;;;;4.20;2.65;;;11.00;99.90;;;;;;5025953;28;20079;-73
2022/10/07 04:25:32;;;;;;;11.18;4.28;;;11.00;99.90;;;;;;5026325;28;20095;-73
2022/10/07 04:27:35;;;;;;;6.85;2.97;;;11.00;99.90;;;;;;5006325;28;20111;-73
2022/10/07 04:30:02;;;;;;;5.47;2.67;;;10.90;99.90;;;;;;5006030;28;20084;-74
2022/10/07 04:32:28;;;;;;;5.05;2.65;;;10.90;99.90;;;;;;5007343;28;20444;-73
2022/10/07 04:34:53;;;;;;;13.70;3.17;;;10.90;99.90;;;;;;5008412;28;20075;-73
2022/10/07 04:37:19;;;;;;;8.48;2.80;;;10.90;99.90;;;;;;5025219;28;20073;-72
2022/10/07 04:39:44;;;;;;;4.65;2.90;;;10.90;99.90;;;;;;5025115;28;20535;-74
2022/10/07 04:43:17;;;;;;;6.00;3.28;;;10.90;99.90;;;;;;5026331;28;20423;-74
2022/10/07 04:44:55;;;;;;;6.38;2.83;;;10.80;99.90;;;;;;5023289;28;20052;-76
2022/10/07 04:47:21;;;;;;;6.80;3.45;;;10.80;99.90;;;;;;5008723;28;20053;-76
2022/10/07 04:49:47;;;;;;;19.67;5.47;;;10.80;99.90;;;;;;5019881;28;20072;-77
2022/10/07 04:54:53;;;;;;;10.63;3.25;;;10.80;99.90;;;;;;5102458;27;20458;-78
2022/10/07 04:57:18;;;;;;;5.70;3.53;;;10.70;99.90;;;;;;5068850;28;20040;-78
2022/10/07 04:59:44;;;;;;;5.90;2.72;;;10.70;99.90;;;;;;5082472;28;20047;-78
2022/10/07 05:02:10;;;;;;;7.00;3.00;;;10.70;99.90;;;;;;5069126;28;20044;-78
2022/10/07 05:04:35;;;;;;;10.95;3.67;;;10.70;99.90;;;;;;5085323;28;20397;-77
2022/10/07 05:07:01;;;;;;;3.55;2.40;;;10.70;99.90;;;;;;5082479;28;20039;-79
2022/10/07 05:09:27;;;;;;;9.23;3.78;;;10.60;99.90;;;;;;5102842;28;20055;-77
2022/10/07 05:11:56;;;;;;;6.35;2.75;;;10.60;99.90;;;;;;5094977;28;20067;-78
2022/10/07 05:14:22;;;;;;;12.50;3.40;;;10.70;99.90;;;;;;5094020;28;20144;-79
2022/10/07 05:16:48;;;;;;;7.53;3.45;;;10.60;99.90;;;;;;5087339;28;20119;-78
2022/10/07 05:19:14;;;;;;;5.28;3.17;;;10.60;99.90;;;;;;5102561;28;20054;-78
2022/10/07 05:21:41;;;;;;;9.10;3.38;;;10.60;99.90;;;;;;5086665;28;20072;-78
2022/10/07 05:24:07;;;;;;;10.68;4.45;;;10.60;99.90;;;;;;5067815;28;20043;-78
2022/10/07 05:26:32;;;;;;;11.55;2.58;;;10.60;99.90;;;;;;5080206;28;20718;-79
2022/10/07 05:28:58;;;;;;;5.38;2.83;;;10.60;99.90;;;;;;5082810;28;20115;-78
2022/10/07 05:31:27;;;;;;;5.63;2.90;;;10.60;99.90;;;;;;5084671;28;20509;-78
2022/10/07 05:33:52;;;;;;;6.93;2.97;;;10.60;99.90;;;;;;5066095;28;20048;-78
2022/10/07 05:36:21;;;;;;;4.60;3.08;;;10.60;99.90;;;;;;5090060;28;20040;-78
2022/10/07 05:38:46;;;;;;;5.10;3.08;;;10.60;99.90;;;;;;5080502;28;20481;-77
2022/10/07 05:41:12;;;;;;;7.95;2.75;;;10.60;99.90;;;;;;5074659;28;20040;-78
2022/10/07 05:43:41;;;;;;;7.28;3.90;;;10.60;99.90;;;;;;5082199;28;20087;-77
2022/10/07 05:46:19;;;;;;;5.93;2.95;;;10.60;99.90;;;;;;5083088;28;20447;-77
2022/10/07 05:48:52;;;;;;;6.00;3.35;;;10.50;99.90;;;;;;5080144;28;20044;-86
2022/10/07 05:51:22;;;;;;;4.15;3.35;;;10.50;99.90;;;;;;5046340;28;20051;-80
2022/10/07 05:53:52;;;;;;;6.43;3.67;;;10.50;99.90;;;;;;5090733;28;20051;-83
2022/10/07 05:56:21;;;;;;;7.95;3.55;;;10.50;99.90;;;;;;5085953;28;20033;-83
2022/10/07 05:58:48;;;;;;;5.32;2.75;;;10.50;99.90;;;;;;5080530;28;20063;-81
2022/10/07 06:01:16;;;;;;;6.38;3.15;;;10.50;99.90;;;;;;5092210;28;20119;-83
2022/10/07 06:03:47;;;;;;;9.98;3.53;;;10.60;99.90;;;;;;5076086;28;20053;-80
2022/10/07 06:06:13;;;;;;;16.08;3.30;;;10.60;99.90;;;;;;5047345;28;20044;-78
2022/10/07 06:08:38;;;;;;;18.75;4.60;;;10.60;99.90;;;;;;5063913;28;20040;-81
2022/10/07 06:13:51;;;;;;;6.38;3.00;;;10.60;99.90;;;;;;5063949;28;20226;-79
2022/10/07 06:16:17;;;;;;;7.03;3.08;;;10.70;99.90;;;;;;5077873;28;20040;-84
2022/10/07 06:18:42;;;;;;;13.07;4.13;;;10.70;99.90;;;;;;5031405;28;20052;-80
2022/10/07 06:21:08;;;;;;;6.20;3.38;;;10.80;99.90;;;;;;5065894;28;20045;-79
2022/10/07 06:23:34;;;;;;;9.00;4.47;;;10.80;99.90;;;;;;5066196;28;20395;-80
2022/10/07 06:26:07;;;;;;;7.07;3.25;;;10.80;99.90;;;;;;5066548;28;20036;-78
2022/10/07 06:28:38;;;;;;;15.82;4.35;;;10.90;99.90;;;;;;5074705;28;20773;-80
2022/10/07 06:31:09;;;;;;;8.88;4.63;;;10.90;99.90;;;;;;5076113;28;20068;-84
2022/10/07 06:33:35;;;;;;;12.85;4.85;;;11.00;99.90;;;;;;5085822;28;20044;-83
2022/10/07 06:36:02;;;;;;;14.13;5.22;;;11.00;99.90;;;;;;5067387;28;20047;-81
2022/10/07 06:38:28;;;;;;;11.02;4.15;;;11.00;99.90;;;;;;5086222;28;20079;-78
2022/10/07 06:41:01;;;;;;;12.35;4.40;;;11.10;99.90;;;;;;5086099;28;20071;-78
2022/10/07 06:43:31;;;;;;;12.27;4.45;;;11.20;99.90;;;;;;5085362;28;20459;-78
2022/10/07 06:45:58;;;;;;;7.00;4.40;;;11.20;99.90;;;;;;5066159;28;20036;-78
2022/10/07 06:48:24;;;;;;;14.05;5.22;;;11.20;99.90;;;;;;5077590;28;20043;-75
2022/10/07 06:50:57;;;;;;;12.48;5.20;;;11.30;99.90;;;;;;5084663;28;20100;-76
2022/10/07 06:53:24;;;;;;;10.95;4.90;;;11.30;99.90;;;;;;5033635;28;20052;-73
2022/10/07 06:55:50;;;;;;;10.75;3.45;;;11.30;99.90;;;;;;5064704;28;20101;-74
2022/10/07 06:58:17;;;;;;;12.13;5.03;;;11.40;99.90;;;;;;5065110;28;20063;-75
2022/10/07 07:00:48;;;;;;;10.30;4.40;;;11.40;99.90;;;;;;5064447;28;20125;-74
2022/10/07 07:03:13;;;;;;;16.30;3.95;;;11.40;99.90;;;;;;5065230;28;20702;-73
2022/10/07 07:05:39;;;;;;;7.80;4.05;;;11.40;99.90;;;;;;5069666;28;20047;-73
2022/10/07 07:08:05;;;;;;;8.93;4.00;;;11.50;99.90;;;;;;5074527;28;20041;-72
2022/10/07 07:10:35;;;;;;;13.13;3.90;;;11.50;99.90;;;;;;5066161;28;20178;-74
2022/10/07 07:13:01;;;;;;;6.65;3.78;;;11.50;99.90;;;;;;5047061;28;20045;-75
2022/10/07 07:15:26;;;;;;;9.65;4.70;;;11.60;99.90;;;;;;5065434;28;20054;-74
2022/10/07 07:17:52;;;;;;;8.50;3.88;;;11.60;99.90;;;;;;5063296;28;20406;-74
2022/10/07 07:20:18;;;;;;;5.93;3.63;;;11.60;99.90;;;;;;5064227;28;20063;-75
2022/10/07 07:22:43;;;;;;;7.65;4.00;;;11.60;99.90;;;;;;5084805;28;20093;-74
2022/10/07 07:25:10;;;;;;;9.05;3.65;;;11.70;99.90;;;;;;5073480;28;20571;-75
2022/10/07 07:27:36;;;;;;;10.20;4.53;;;11.70;99.90;;;;;;5079894;28;20045;-74
2022/10/07 07:30:03;;;;;;;8.82;3.70;;;11.80;99.90;;;;;;5064534;28;20380;-75
2022/10/07 07:32:29;;;;;;;10.90;4.88;;;11.80;99.90;;;;;;5064713;28;20120;-74
2022/10/07 07:34:55;;;;;;;5.07;3.15;;;11.80;99.90;;;;;;5063224;28;20116;-74
2022/10/07 07:37:22;;;;;;;9.27;4.07;;;11.90;99.90;;;;;;5046005;28;20052;-73
2022/10/07 07:39:48;;;;;;;10.93;4.82;;;11.90;99.90;;;;;;5064080;28;20733;-74
2022/10/07 07:42:13;;;;;;;10.70;4.50;;;11.90;99.90;;;;;;5062494;28;20056;-74
2022/10/07 07:44:39;;;;;;;12.48;5.20;;;12.00;99.90;;;;;;5085372;28;20476;-75
2022/10/07 07:47:06;;;;;;;10.30;4.50;;;12.00;99.90;;;;;;5073793;28;20029;-77
2022/10/07 07:49:33;;;;;;;13.57;3.88;;;12.00;99.90;;;;;;5046808;28;20124;-76
2022/10/07 07:51:59;;;;;;;19.40;5.53;;;12.00;99.90;;;;;;5060262;28;20051;-74
2022/10/07 07:54:26;;;;;;;6.88;4.53;;;12.10;99.90;;;;;;5061365;28;20136;-74
2022/10/07 07:56:56;;;;;;;8.27;4.10;;;12.10;99.90;;;;;;5066043;28;20091;-73
2022/10/07 07:59:23;;;;;;;17.33;4.38;;;12.10;99.90;;;;;;5065120;28;20049;-74
2022/10/07 08:01:49;;;;;;;8.45;4.65;;;12.10;99.90;;;;;;5064717;28;20072;-74
2022/10/07 08:04:15;;;;;;;12.85;4.07;;;12.20;99.90;;;;;;5048120;28;20459;-75
2022/10/07 08:06:42;;;;;;;17.77;3.78;;;12.20;99.90;;;;;;5063995;28;20444;-74
2022/10/07 08:09:07;;;;;;;6.65;3.67;;;12.30;99.90;;;;;;5030349;28;20120;-75
2022/10/07 08:11:33;;;;;;;7.25;3.22;;;12.30;99.90;;;;;;5064855;28;20447;-74
2022/10/07 08:13:59;;;;;;;4.55;2.83;;;12.30;99.90;;;;;;5063655;28;20041;-75
2022/10/07 08:16:27;;;;;;;8.57;3.70;;;12.30;99.90;;;;;;5063331;28;20482;-74
2022/10/07 08:18:55;;;;;;;8.02;3.42;;;12.30;99.90;;;;;;5058007;28;20096;-76
2022/10/07 08:21:24;;;;;;;8.30;3.67;;;12.40;99.90;;;;;;5062322;28;20045;-76
2022/10/07 08:23:57;;;;;;;12.40;4.22;;;12.40;99.90;;;;;;5063722;28;20097;-75
2022/10/07 08:26:24;;;;;;;15.20;3.88;;;12.50;99.90;;;;;;5047300;28;20501;-74
2022/10/07 08:28:50;;;;;;;5.00;3.85;;;12.50;99.90;;;;;;5047555;28;20040;-74
2022/10/07 08:31:18;;;;;;;5.78;3.10;;;12.50;99.90;;;;;;5063809;28;20576;-75
2022/10/07 08:33:45;;;;;;;10.40;3.88;;;12.60;99.90;;;;;;5047488;28;20461;-77
2022/10/07 08:36:22;;;;;;;8.15;3.53;;;12.60;99.90;;;;;;5062244;28;20032;-76
2022/10/07 08:38:49;;;;;;;7.32;3.80;;;12.70;99.90;;;;;;5043930;28;20056;-75
2022/10/07 08:41:33;;;;;;;5.47;3.47;;;12.70;99.90;;;;;;5063231;28;20573;-77
2022/10/07 08:44:19;;;;;;;4.97;3.15;;;12.80;99.90;;;;;;5063546;28;20037;-75
2022/10/07 08:47:01;;;;;;;17.52;4.93;;;12.80;99.90;;;;;;5046248;28;20051;-74
2022/10/07 08:49:41;;;;;;;12.35;4.18;;;12.90;99.90;;;;;;5046292;28;20044;-75
2022/10/07 08:52:34;;;;;;;4.60;2.25;;;12.90;99.90;;;;;;5063761;28;20452;-74
2022/10/07 08:55:00;;;;;;;9.82;3.30;;;12.90;99.90;;;;;;5071461;28;20109;-75
2022/10/07 08:57:40;;;;;;;8.38;3.83;;;13.00;99.90;;;;;;5060818;28;20056;-74
2022/10/07 09:00:07;;;;;;;11.80;3.47;;;13.00;99.90;;;;;;5054764;28;20047;-77
2022/10/07 09:02:57;;;;;;;9.98;4.63;;;13.10;99.90;;;;;;5065635;28;20112;-75
2022/10/07 09:05:32;;;;;;;5.82;2.72;;;13.10;99.90;;;;;;5065505;28;20417;-74
2022/10/07 09:08:03;;;;;;;10.95;4.18;;;13.10;99.90;;;;;;5062732;28;20087;-76
2022/10/07 09:10:45;;;;;;;10.68;3.92;;;13.20;99.90;;;;;;5075736;28;20458;-77
2022/10/07 09:13:14;;;;;;;;;;;13.20;99.90;;;;;;5064552;28;20479;-75
2022/10/07 09:16:03;;;;;;;15.00;3.78;;;13.30;99.90;;;;;;5045967;28;19931;-74
2022/10/07 09:18:43;;;;;;;12.40;4.60;;;13.30;99.90;;;;;;5071320;28;20040;-75
2022/10/07 09:21:18;;;;;;;5.15;2.53;;;13.40;99.90;;;;;;5065338;28;20039;-76
2022/10/07 09:23:45;;;;;;;8.70;4.63;;;13.50;99.90;;;;;;5082060;28;20048;-74
2022/10/07 09:26:13;;;;;;;16.25;3.83;;;13.50;99.90;;;;;;5053445;28;20448;-74
2022/10/07 09:28:39;;;;;;;6.47;3.05;;;13.60;99.90;;;;;;5049414;28;20074;-75
2022/10/07 09:31:06;;;;;;;6.68;3.63;;;13.60;99.90;;;;;;5084506;28;20044;-76
2022/10/07 09:33:38;;;;;;;8.00;2.88;;;13.60;99.90;;;;;;5064044;28;20535;-78
2022/10/07 09:36:07;;;;;;;4.93;2.60;;;13.60;99.90;;;;;;5048925;28;21294;-75
2022/10/07 09:38:33;;;;;;;11.13;3.97;;;13.70;99.90;;;;;;5083503;28;20236;-76
2022/10/07 09:41:14;;;;;;;8.27;3.78;;;13.70;99.90;;;;;;5085386;28;20071;-75
2022/10/07 09:44:18;;;;;;;17.63;3.80;;;13.70;99.90;;;;;;5075946;28;20056;-77
2022/10/07 09:46:45;;;;;;;6.22;3.53;;;13.70;99.90;;;;;;5067342;28;20044;-77
2022/10/07 09:49:26;;;;;;;6.85;4.35;;;13.70;99.90;;;;;;5067724;28;20044;-76
2022/10/07 09:52:04;;;;;;;9.38;3.17;;;13.80;99.90;;;;;;5078268;28;20075;-75
2022/10/07 09:54:32;;;;;;;13.75;3.38;;;13.80;99.90;;;;;;5068355;28;20503;-76
2022/10/07 09:57:00;;;;;;;5.22;3.60;;;13.80;99.90;;;;;;5072201;28;20051;-76
2022/10/07 09:59:31;;;;;;;6.80;3.30;;;13.90;99.90;;;;;;5066972;28;20068;-75
2022/10/07 10:02:00;;;;;;;12.32;3.83;;;13.90;99.90;;;;;;5067571;28;20072;-76
2022/10/07 10:04:36;;;;;;;7.07;3.35;;;13.90;99.90;;;;;;5049778;28;20045;-76
2022/10/07 10:07:17;;;;;;;6.60;2.60;;;14.00;99.90;;;;;;5067340;28;20051;-77
2022/10/07 10:09:55;;;;;;;9.32;3.40;;;14.00;99.90;;;;;;5069024;28;20114;-76
2022/10/07 10:12:23;;;;;;;7.82;3.67;;;14.00;99.90;;;;;;5056222;28;20414;-76
2022/10/07 10:14:53;;;;;;;15.45;3.85;;;14.00;99.90;;;;;;5070046;28;20048;-76
2022/10/07 10:17:24;;;;;;;6.85;2.60;;;14.10;99.90;;;;;;5032849;28;20048;-76
2022/10/07 10:19:50;;;;;;;9.40;3.05;;;14.10;99.90;;;;;;5065805;28;20044;-76
2022/10/07 10:22:27;;;;;;;5.57;2.92;;;14.10;99.90;;;;;;5050268;28;20067;-76
2022/10/07 10:28:06;;;;;;;6.47;3.83;;;14.20;99.90;;;;;;5076788;28;20036;-74
2022/10/07 10:30:35;;;;;;;;;;;14.30;99.90;;;;;;5069312;28;20493;-79
2022/10/07 10:33:20;;;;;;;6.80;3.03;;;14.30;99.90;;;;;;5087813;28;19920;-75
2022/10/07 10:36:07;;;;;;;5.05;3.45;;;14.30;99.90;;;;;;5049835;28;20063;-74
2022/10/07 10:38:37;;;;;;;8.75;4.32;;;14.30;99.90;;;;;;5054909;28;20024;-76
2022/10/07 10:41:16;;;;;;;5.00;3.03;;;14.30;99.90;;;;;;5057162;28;20743;-75
2022/10/07 10:44:00;;;;;;;11.10;3.20;;;14.40;99.90;;;;;;5066359;28;20137;-74
2022/10/07 10:46:49;;;;;;;6.20;3.13;;;14.40;99.90;;;;;;5046304;28;20045;-75
2022/10/07 10:49:36;;;;;;;4.43;3.15;;;14.40;99.90;;;;;;5085368;28;20481;-75
2022/10/07 10:52:34;;;;;;;11.88;2.50;;;14.50;99.90;;;;;;5086489;28;20040;-76
2022/10/07 10:55:24;;;;;;;5.50;3.38;;;14.50;99.90;;;;;;5065984;28;20063;-75
2022/10/07 10:58:11;;;;;;;6.40;4.05;;;14.50;99.90;;;;;;5065866;28;20079;-74
2022/10/07 11:00:51;;;;;;;10.13;3.92;;;14.60;99.90;;;;;;5065582;28;20094;-75
2022/10/07 11:03:32;;;;;;;7.78;3.47;;;14.60;99.90;;;;;;5066381;28;20040;-76
2022/10/07 11:06:02;;;;;;;9.63;3.42;;;14.70;99.90;;;;;;5066473;28;20075;-76
2022/10/07 11:08:32;;;;;;;6.72;3.53;;;14.70;99.90;;;;;;5066732;28;20072;-75
2022/10/07 11:11:05;;;;;;;5.53;3.08;;;14.70;99.90;;;;;;5058113;28;20039;-74
2022/10/07 11:13:50;;;;;;;15.27;3.30;;;14.80;99.90;;;;;;5068496;28;20555;-75
2022/10/07 11:16:35;;;;;;;4.70;2.70;;;14.80;99.90;;;;;;5084551;28;20044;-75
2022/10/07 11:19:12;;;;;;;6.10;3.35;;;14.70;99.90;;;;;;5057915;28;20047;-76
2022/10/07 11:21:48;;;;;;;8.70;3.17;;;14.80;99.90;;;;;;5048086;28;20396;-75
2022/10/07 11:24:20;;;;;;;7.68;3.35;;;14.80;99.90;;;;;;5065503;28;20064;-76
2022/10/07 11:27:15;;;;;;;4.47;2.95;;;14.80;99.90;;;;;;5064260;28;20051;-77
2022/10/07 11:30:05;;;;;;;7.80;3.30;;;14.80;99.90;;;;;;5066562;28;20095;-78
2022/10/07 11:32:55;;;;;;;10.00;3.53;;;14.80;99.90;;;;;;5071460;28;20454;-78
2022/10/07 11:35:31;;;;;;;14.68;4.82;;;14.90;99.90;;;;;;5037166;28;20044;-77
2022/10/07 11:38:16;;;;;;;4.38;2.60;;;14.90;99.90;;;;;;5036842;28;20552;-77
2022/10/07 11:40:47;;;;;;;8.40;3.13;;;14.90;99.90;;;;;;5045617;28;20080;-78
2022/10/07 11:43:31;;;;;;;8.50;3.80;;;14.90;99.90;;;;;;5027098;28;20088;-78
2022/10/07 11:46:07;;;;;;;6.82;3.22;;;14.90;99.90;;;;;;5081204;28;20091;-78
2022/10/07 11:48:59;;;;;;;6.70;3.45;;;15.00;99.90;;;;;;5066688;28;20063;-78
2022/10/07 11:51:37;;;;;;;7.72;4.05;;;15.00;99.90;;;;;;5066004;28;20046;-78
2022/10/07 11:54:06;;;;;;;16.65;4.10;;;15.00;99.90;;;;;;5084029;28;20054;-79
2022/10/07 11:56:48;;;;;;;20.92;4.50;;;15.00;99.90;;;;;;5066290;28;20136;-79
2022/10/07 11:59:45;;;;;;;4.80;2.50;;;14.90;99.90;;;;;;5084801;28;20031;-78
2022/10/07 12:02:29;;;;;;;4.13;2.60;;;14.90;99.90;;;;;;5082314;28;20105;-79
2022/10/07 12:04:56;;;;;;;10.88;3.65;;;14.90;99.90;;;;;;5083160;28;20551;-77
2022/10/07 12:07:57;;;;;;;10.85;3.17;;;14.90;99.90;;;;;;5072446;28;20046;-78
2022/10/07 12:10:30;;;;;;;11.27;3.28;;;14.90;99.90;;;;;;5064251;28;20118;-78
2022/10/07 12:12:58;;;;;;;9.60;3.42;;;15.00;99.90;;;;;;5064029;28;20437;-78
2022/10/07 12:15:41;;;;;;;4.68;2.65;;;15.10;99.90;;;;;;5064046;28;20055;-78
2022/10/07 12:18:06;;;;;;;13.40;3.95;;;15.10;99.90;;;;;;5029828;28;20037;-78
2022/10/07 12:20:51;;;;;;;14.35;3.03;;;15.10;99.90;;;;;;5062905;28;20036;-79
2022/10/07 12:23:17;;;;;;;6.32;2.35;;;15.10;99.90;;;;;;5074954;28;20048;-79
2022/10/07 12:25:46;;;;;;;7.68;2.90;;;15.10;99.90;;;;;;5069468;28;20044;-78
2022/10/07 12:28:18;;;;;;;7.97;1.75;;;15.20;99.90;;;;;;5078689;28;20260;-78
2022/10/07 12:31:01;;;;;;;6.25;1.80;;;15.20;99.90;;;;;;5063022;28;20044;-78
2022/10/07 12:33:42;;;;;;;9.57;3.15;;;15.20;99.90;;;;;;5043962;28;20047;-79
2022/10/07 12:36:28;;;;;;;6.63;2.73;;;15.20;99.90;;;;;;5063852;28;20045;-78
2022/10/07 12:38:57;;;;;;;6.88;2.60;;;15.20;99.90;;;;;;5052309;28;20407;-78
2022/10/07 12:41:32;;;;;;;4.93;2.40;;;15.20;99.90;;;;;;5063879;28;20038;-78
2022/10/07 12:44:05;;;;;;;5.25;2.42;;;15.20;99.90;;;;;;5064012;28;20044;-79
2022/10/07 12:46:41;;;;;;;3.75;2.15;;;15.20;99.90;;;;;;5080957;28;20048;-78
2022/10/07 12:49:36;;;;;;;5.68;2.55;;;15.30;99.90;;;;;;5057954;28;20432;-79
2022/10/07 12:52:32;;;;;;;6.22;2.90;;;15.30;99.90;;;;;;5063939;28;20040;-80
2022/10/07 12:55:01;;;;;;;4.35;2.53;;;15.20;99.90;;;;;;5063769;28;20051;-79
2022/10/07 12:57:35;;;;;;;5.95;2.38;;;15.30;99.90;;;;;;5057456;28;20098;-78
2022/10/07 13:00:06;;;;;;;6.78;2.80;;;15.30;99.90;;;;;;5058640;28;20044;-79
2022/10/07 13:02:54;;;;;;;6.07;2.45;;;15.30;99.90;;;;;;5063700;28;20047;-80
2022/10/07 13:05:31;;;;;;;4.75;2.55;;;15.30;99.90;;;;;;5052921;28;20181;-79
2022/10/07 13:08:34;;;;;;;7.25;3.13;;;15.30;99.90;;;;;;5064087;28;20044;-79
2022/10/07 13:11:16;;;;;;;5.97;2.92;;;15.40;99.90;;;;;;5043307;28;20121;-78
2022/10/07 13:14:14;;;;;;;4.85;2.83;;;15.40;99.90;;;;;;5062080;28;20426;-76
2022/10/07 13:16:49;;;;;;;4.72;2.83;;;15.40;99.90;;;;;;5009055;28;20045;-76
2022/10/07 13:19:18;;;;;;;4.68;2.72;;;15.40;99.90;;;;;;5061282;28;20316;-76